createdAt,value
2018-08-22T00:01:49.560Z,51.00
2018-08-22T00:04:20.424Z,50.90
2018-08-22T00:06:51.344Z,50.80
2018-08-22T00:09:22.155Z,51.00
2018-08-22T00:11:52.917Z,51.00
2018-08-22T00:14:23.598Z,51.00
2018-08-22T00:16:54.426Z,51.10
2018-08-22T00:19:25.735Z,51.10
2018-08-22T00:21:56.714Z,51.40
2018-08-22T00:24:27.253Z,51.30
2018-08-22T00:26:57.992Z,51.40
2018-08-22T00:29:28.980Z,51.40
2018-08-22T00:31:59.592Z,51.60
2018-08-22T00:34:30.229Z,51.70
2018-08-22T00:37:00.895Z,51.80
2018-08-22T00:39:31.846Z,51.90
2018-08-22T00:42:02.663Z,52.10
2018-08-22T00:44:33.417Z,52.20
2018-08-22T00:47:04.151Z,52.20
2018-08-22T00:49:34.853Z,52.40
2018-08-22T00:52:05.575Z,52.30
2018-08-22T00:54:36.353Z,52.30
2018-08-22T00:57:07.117Z,52.30
2018-08-22T00:59:38.177Z,52.50
2018-08-22T01:02:09.189Z,52.50
2018-08-22T01:04:39.787Z,52.50
2018-08-22T01:07:10.488Z,52.60
2018-08-22T01:09:41.481Z,52.70
2018-08-22T01:12:12.654Z,52.70
2018-08-22T01:14:43.426Z,52.80
2018-08-22T01:17:14.490Z,52.80
2018-08-22T01:19:45.148Z,52.80
2018-08-22T01:22:15.966Z,52.80
2018-08-22T01:24:46.848Z,52.80
2018-08-22T01:27:21.472Z,52.80
2018-08-22T01:29:54.001Z,52.80
2018-08-22T01:32:24.610Z,52.80
2018-08-22T01:34:55.157Z,52.80
2018-08-22T01:37:25.701Z,52.90
2018-08-22T01:39:56.348Z,53.00
2018-08-22T01:42:26.942Z,53.10
2018-08-22T01:44:57.577Z,53.00
2018-08-22T01:47:28.258Z,53.00
2018-08-22T01:49:58.965Z,53.00
2018-08-22T01:52:29.499Z,53.70
2018-08-22T01:55:00.089Z,53.10
2018-08-22T01:57:30.728Z,53.20
2018-08-22T02:00:01.505Z,53.20
2018-08-22T02:02:32.280Z,53.30
2018-08-22T02:05:03.317Z,53.30
2018-08-22T02:07:34.060Z,53.40
2018-08-22T02:10:05.530Z,53.40
2018-08-22T02:12:36.447Z,53.50
2018-08-22T02:15:07.644Z,53.40
2018-08-22T02:17:38.484Z,53.40
2018-08-22T02:20:09.045Z,53.30
2018-08-22T02:22:39.623Z,53.40
2018-08-22T02:25:10.169Z,53.40
2018-08-22T02:27:40.927Z,53.30
2018-08-22T02:30:11.647Z,53.40
2018-08-22T02:32:42.501Z,53.40
2018-08-22T02:35:13.156Z,53.40
2018-08-22T02:37:43.841Z,53.90
2018-08-22T02:40:14.909Z,53.50
2018-08-22T02:42:45.568Z,53.30
2018-08-22T02:45:16.192Z,53.40
2018-08-22T02:47:46.877Z,53.40
2018-08-22T02:50:17.585Z,53.60
2018-08-22T02:52:48.252Z,53.60
2018-08-22T02:55:18.935Z,53.60
2018-08-22T02:57:49.649Z,53.60
2018-08-22T03:00:20.327Z,53.70
2018-08-22T03:02:51.092Z,53.80
2018-08-22T03:05:22.052Z,53.80
2018-08-22T03:07:52.639Z,53.80
2018-08-22T03:10:23.381Z,53.90
2018-08-22T03:12:53.924Z,53.90
2018-08-22T03:15:24.548Z,53.90
2018-08-22T03:17:55.158Z,54.10
2018-08-22T03:20:25.990Z,54.00
2018-08-22T03:22:56.742Z,54.20
2018-08-22T03:25:27.773Z,54.20
2018-08-22T03:27:58.897Z,54.20
2018-08-22T03:30:29.482Z,54.40
2018-08-22T03:33:00.024Z,54.50
2018-08-22T03:35:30.679Z,54.50
2018-08-22T03:38:01.391Z,54.50
2018-08-22T03:40:32.044Z,54.50
2018-08-22T03:43:02.710Z,54.60
2018-08-22T03:45:33.365Z,54.60
2018-08-22T03:48:04.068Z,54.60
2018-08-22T03:50:34.756Z,54.70
2018-08-22T03:53:05.507Z,54.80
2018-08-22T03:55:36.053Z,54.80
2018-08-22T03:58:06.827Z,55.00
2018-08-22T04:00:37.745Z,55.00
2018-08-22T04:03:08.570Z,55.00
2018-08-22T04:05:39.352Z,55.10
2018-08-22T04:08:10.049Z,55.20
2018-08-22T04:10:40.892Z,55.10
2018-08-22T04:13:12.101Z,55.60
2018-08-22T04:15:42.858Z,55.30
2018-08-22T04:18:13.515Z,55.30
2018-08-22T04:20:44.129Z,55.30
2018-08-22T04:23:14.860Z,55.40
2018-08-22T04:25:45.488Z,55.50
2018-08-22T04:28:16.046Z,55.50
2018-08-22T04:30:46.814Z,56.10
2018-08-22T04:33:18.321Z,55.60
2018-08-22T04:35:49.111Z,55.70
2018-08-22T04:38:19.842Z,55.80
2018-08-22T04:40:50.520Z,55.80
2018-08-22T04:43:21.593Z,55.90
2018-08-22T04:45:52.209Z,55.90
2018-08-22T04:48:23.098Z,56.00
2018-08-22T04:50:53.815Z,56.00
2018-08-22T04:53:24.413Z,56.00
2018-08-22T04:55:54.998Z,56.10
2018-08-22T04:58:25.583Z,56.10
2018-08-22T05:00:56.278Z,56.20
2018-08-22T05:03:27.083Z,56.20
2018-08-22T05:05:57.729Z,56.30
2018-08-22T05:08:28.449Z,56.20
2018-08-22T05:10:59.085Z,56.30
2018-08-22T05:13:29.736Z,56.40
2018-08-22T05:16:00.412Z,56.50
2018-08-22T05:18:31.014Z,56.40
2018-08-22T05:21:01.577Z,56.50
2018-08-22T05:23:32.207Z,56.60
2018-08-22T05:26:03.041Z,56.70
2018-08-22T05:28:33.810Z,57.00
2018-08-22T05:31:04.617Z,57.50
2018-08-22T05:33:35.378Z,56.90
2018-08-22T05:36:06.254Z,57.10
2018-08-22T05:38:36.666Z,57.10
2018-08-22T05:41:07.478Z,57.20
2018-08-22T05:43:38.245Z,57.30
2018-08-22T05:46:08.986Z,57.50
2018-08-22T05:48:39.834Z,57.50
2018-08-22T05:51:10.641Z,57.60
2018-08-22T05:53:41.592Z,57.50
2018-08-22T05:56:12.277Z,57.60
2018-08-22T05:58:43.112Z,57.60
2018-08-22T06:01:14.137Z,57.70
2018-08-22T06:03:45.146Z,57.70
2018-08-22T06:06:15.741Z,57.70
2018-08-22T06:08:46.517Z,57.80
2018-08-22T06:11:17.035Z,57.90
2018-08-22T06:13:48.080Z,57.90
2018-08-22T06:16:18.707Z,57.90
2018-08-22T06:18:49.401Z,58.00
2018-08-22T06:21:19.810Z,58.00
2018-08-22T06:23:50.745Z,58.10
2018-08-22T06:26:21.286Z,58.00
2018-08-22T06:28:52.008Z,58.00
2018-08-22T06:31:22.635Z,58.10
2018-08-22T06:33:53.371Z,58.10
2018-08-22T06:36:30.490Z,58.10
2018-08-22T06:39:01.184Z,58.10
2018-08-22T06:41:31.773Z,58.10
2018-08-22T06:44:02.793Z,58.70
2018-08-22T06:46:33.386Z,58.10
2018-08-22T06:49:03.994Z,58.20
2018-08-22T06:51:34.489Z,58.10
2018-08-22T06:54:05.695Z,58.20
2018-08-22T06:56:36.448Z,58.20
2018-08-22T06:59:07.384Z,58.00
2018-08-22T07:01:37.942Z,58.00
2018-08-22T07:04:08.756Z,57.90
2018-08-22T07:06:39.497Z,57.90
2018-08-22T07:09:12.364Z,58.90
2018-08-22T07:11:49.701Z,57.20
2018-08-22T07:14:20.350Z,56.90
2018-08-22T07:16:51.151Z,57.30
2018-08-22T07:19:21.956Z,56.20
2018-08-22T07:21:52.560Z,55.90
2018-08-22T07:24:23.238Z,55.70
2018-08-22T07:26:54.112Z,55.60
2018-08-22T07:29:24.766Z,55.50
2018-08-22T07:31:55.668Z,55.30
2018-08-22T07:34:26.327Z,55.20
2018-08-22T07:36:56.984Z,55.10
2018-08-22T07:39:27.781Z,55.10
2018-08-22T07:41:58.561Z,54.70
2018-08-22T07:44:29.196Z,54.70
2018-08-22T07:47:00.053Z,54.70
2018-08-22T07:49:30.963Z,54.60
2018-08-22T07:52:01.676Z,54.50
2018-08-22T07:54:48.695Z,54.20
2018-08-22T07:57:21.861Z,54.10
2018-08-22T07:59:53.518Z,54.00
2018-08-22T08:02:24.211Z,54.40
2018-08-22T08:04:55.039Z,53.70
2018-08-22T08:07:25.639Z,53.60
2018-08-22T08:09:56.410Z,53.90
2018-08-22T08:12:32.023Z,53.10
2018-08-22T08:15:05.643Z,53.00
2018-08-22T08:17:36.989Z,53.10
2018-08-22T08:20:07.785Z,52.80
2018-08-22T08:22:38.468Z,52.80
2018-08-22T08:25:09.781Z,52.70
2018-08-22T08:27:40.636Z,52.20
2018-08-22T08:30:11.339Z,52.20
2018-08-22T08:32:41.918Z,52.00
2018-08-22T08:35:13.296Z,51.90
2018-08-22T08:37:44.707Z,52.20
2018-08-22T08:40:15.329Z,51.50
2018-08-22T08:42:46.408Z,51.40
2018-08-22T08:45:17.161Z,51.30
2018-08-22T08:47:48.308Z,51.20
2018-08-22T08:50:19.092Z,51.00
2018-08-22T08:52:50.037Z,50.90
2018-08-22T08:55:21.411Z,50.60
2018-08-22T08:57:58.895Z,50.60
2018-08-22T09:00:29.999Z,50.30
2018-08-22T09:03:01.227Z,50.10
2018-08-22T09:05:32.797Z,49.80
2018-08-22T09:08:04.069Z,49.10
2018-08-22T09:10:35.329Z,49.50
2018-08-22T09:13:09.714Z,49.40
2018-08-22T09:15:41.716Z,49.10
2018-08-22T09:18:13.270Z,49.00
2018-08-22T09:20:44.625Z,48.80
2018-08-22T09:23:16.056Z,48.30
2018-08-22T09:25:47.444Z,48.30
2018-08-22T09:28:18.734Z,48.10
2018-08-22T09:30:50.057Z,48.10
2018-08-22T09:33:21.860Z,48.00
2018-08-22T09:35:53.222Z,48.10
2018-08-22T09:38:24.687Z,47.80
2018-08-22T09:40:56.090Z,47.40
2018-08-22T09:43:27.420Z,47.00
2018-08-22T09:45:58.485Z,46.80
2018-08-22T09:48:29.890Z,47.00
2018-08-22T09:51:01.137Z,46.90
2018-08-22T09:53:32.769Z,47.20
2018-08-22T09:56:04.086Z,46.80
2018-08-22T09:58:35.953Z,46.70
2018-08-22T10:01:12.707Z,46.70
2018-08-22T10:04:01.636Z,46.40
2018-08-22T10:06:45.217Z,46.40
2018-08-22T10:09:25.193Z,45.90
2018-08-22T10:11:56.347Z,45.60
2018-08-22T10:14:27.828Z,45.10
2018-08-22T10:16:59.070Z,45.50
2018-08-22T10:19:30.550Z,44.70
2018-08-22T10:22:02.069Z,44.60
2018-08-22T10:24:33.419Z,44.40
2018-08-22T10:27:05.104Z,43.70
2018-08-22T10:29:36.666Z,43.20
2018-08-22T10:32:07.981Z,43.20
2018-08-22T10:34:39.302Z,43.00
2018-08-22T10:37:10.615Z,42.70
2018-08-22T10:39:41.908Z,42.80
2018-08-22T10:42:13.363Z,42.30
2018-08-22T10:44:44.822Z,41.70
2018-08-22T10:47:16.076Z,41.10
2018-08-22T10:49:47.207Z,40.60
2018-08-22T10:52:20.969Z,40.30
2018-08-22T10:54:52.524Z,40.10
2018-08-22T10:57:23.891Z,39.80
2018-08-22T10:59:55.119Z,39.40
2018-08-22T11:02:26.436Z,39.10
2018-08-22T11:04:57.689Z,38.30
2018-08-22T11:07:29.243Z,38.20
2018-08-22T11:10:00.683Z,37.30
2018-08-22T11:12:32.209Z,36.50
2018-08-22T11:15:03.535Z,36.80
2018-08-22T11:17:34.701Z,36.30
2018-08-22T11:20:06.494Z,36.60
2018-08-22T11:22:54.874Z,35.70
2018-08-22T11:25:42.923Z,35.00
2018-08-22T11:28:30.948Z,35.00
2018-08-22T11:31:18.874Z,34.00
2018-08-22T11:34:06.809Z,33.50
2018-08-22T11:36:36.586Z,32.60
2018-08-22T11:39:09.069Z,32.40
2018-08-22T11:41:40.209Z,31.90
2018-08-22T11:44:11.173Z,31.20
2018-08-22T11:46:42.076Z,31.50
2018-08-22T11:49:13.689Z,31.00
2018-08-22T11:51:44.480Z,30.50
2018-08-22T11:54:15.541Z,30.10
2018-08-22T11:56:46.378Z,29.70
2018-08-22T11:59:24.018Z,30.00
2018-08-22T12:01:55.014Z,29.60
2018-08-22T12:04:26.147Z,29.70
2018-08-22T12:06:57.163Z,29.40
2018-08-22T12:09:28.313Z,28.40
2018-08-22T12:11:59.214Z,28.70
2018-08-22T12:14:30.269Z,28.30
2018-08-22T12:17:01.324Z,28.50
2018-08-22T12:19:32.315Z,28.00
2018-08-22T12:22:03.383Z,28.40
2018-08-22T12:24:34.362Z,28.50
2018-08-22T12:27:05.656Z,28.20
2018-08-22T12:29:37.106Z,28.00
2018-08-22T12:32:08.113Z,27.70
2018-08-22T12:34:39.258Z,27.60
2018-08-22T12:37:10.175Z,27.40
2018-08-22T12:39:41.165Z,27.30
2018-08-22T12:42:12.336Z,27.10
2018-08-22T12:44:43.257Z,26.80
2018-08-22T12:47:14.158Z,26.90
2018-08-22T12:49:45.358Z,26.30
2018-08-22T12:52:16.343Z,26.40
2018-08-22T12:54:47.453Z,26.10
2018-08-22T12:57:18.425Z,25.90
2018-08-22T12:59:49.517Z,25.90
2018-08-22T13:02:20.665Z,26.30
2018-08-22T13:04:51.509Z,26.40
2018-08-22T13:07:22.502Z,26.60
2018-08-22T13:09:53.589Z,26.20
2018-08-22T13:12:24.473Z,25.70
2018-08-22T13:14:55.905Z,26.00
2018-08-22T13:17:26.722Z,26.00
2018-08-22T13:19:57.630Z,26.00
2018-08-22T13:22:28.601Z,26.10
2018-08-22T13:25:00.090Z,26.20
2018-08-22T13:27:31.640Z,26.00
2018-08-22T13:30:03.110Z,25.80
2018-08-22T13:32:34.499Z,26.20
2018-08-22T13:35:06.100Z,25.70
2018-08-22T13:37:37.566Z,25.90
2018-08-22T13:40:09.162Z,25.90
2018-08-22T13:42:40.550Z,26.10
2018-08-22T13:45:12.547Z,26.20
2018-08-22T13:47:43.737Z,26.40
2018-08-22T13:50:15.083Z,26.70
2018-08-22T13:52:46.239Z,26.80
2018-08-22T13:55:17.579Z,27.20
2018-08-22T13:57:48.916Z,27.30
2018-08-22T14:00:26.351Z,27.50
2018-08-22T14:02:57.470Z,27.60
2018-08-22T14:05:29.158Z,27.50
2018-08-22T14:08:00.530Z,27.70
2018-08-22T14:10:31.793Z,28.10
2018-08-22T14:13:03.105Z,28.00
2018-08-22T14:15:34.443Z,28.20
2018-08-22T14:18:05.873Z,28.40
2018-08-22T14:20:37.140Z,28.50
2018-08-22T14:23:09.177Z,28.60
2018-08-22T14:25:40.464Z,29.20
2018-08-22T14:28:11.880Z,28.90
2018-08-22T14:30:43.879Z,29.20
2018-08-22T14:33:15.228Z,29.00
2018-08-22T14:35:47.315Z,29.20
2018-08-22T14:38:18.835Z,29.50
2018-08-22T14:40:50.444Z,29.50
2018-08-22T14:43:21.677Z,29.60
2018-08-22T14:45:52.832Z,29.70
2018-08-22T14:48:24.181Z,29.60
2018-08-22T14:50:55.409Z,29.60
2018-08-22T14:53:26.947Z,29.60
2018-08-22T14:55:58.416Z,29.60
2018-08-22T14:58:29.791Z,29.90
2018-08-22T15:01:01.046Z,29.90
2018-08-22T15:03:32.455Z,29.70
2018-08-22T15:06:04.209Z,29.70
2018-08-22T15:08:35.364Z,29.60
2018-08-22T15:11:07.066Z,29.50
2018-08-22T15:13:38.457Z,29.60
2018-08-22T15:16:09.797Z,29.70
2018-08-22T15:18:41.078Z,29.80
2018-08-22T15:21:12.691Z,29.70
2018-08-22T15:23:44.356Z,29.90
2018-08-22T15:26:15.687Z,30.00
2018-08-22T15:28:47.356Z,30.30
2018-08-22T15:31:18.951Z,30.30
2018-08-22T15:33:50.233Z,30.50
2018-08-22T15:36:21.871Z,30.60
2018-08-22T15:38:53.503Z,30.90
2018-08-22T15:41:24.872Z,31.10
2018-08-22T15:43:56.320Z,31.30
2018-08-22T15:46:27.597Z,31.20
2018-08-22T15:48:58.819Z,31.20
2018-08-22T15:51:30.238Z,31.20
2018-08-22T15:54:14.829Z,31.40
2018-08-22T15:56:46.319Z,31.50
2018-08-22T15:59:19.161Z,31.70
2018-08-22T16:01:50.299Z,32.00
2018-08-22T16:04:21.446Z,32.10
2018-08-22T16:06:58.761Z,32.40
2018-08-22T16:09:33.114Z,32.50
2018-08-22T16:12:04.465Z,32.60
2018-08-22T16:14:35.640Z,33.00
2018-08-22T16:17:06.977Z,32.90
2018-08-22T16:19:38.255Z,33.00
2018-08-22T16:22:09.528Z,32.90
2018-08-22T16:24:42.611Z,33.10
2018-08-22T16:27:13.729Z,33.20
2018-08-22T16:29:45.124Z,33.10
2018-08-22T16:32:16.367Z,33.10
2018-08-22T16:34:47.996Z,33.20
2018-08-22T16:37:19.670Z,33.30
2018-08-22T16:39:51.012Z,33.50
2018-08-22T16:42:26.260Z,33.50
2018-08-22T16:44:57.601Z,33.70
2018-08-22T16:47:33.013Z,33.80
2018-08-22T16:50:06.533Z,33.70
2018-08-22T16:52:37.814Z,33.80
2018-08-22T16:55:19.882Z,34.10
2018-08-22T16:57:51.784Z,34.30
2018-08-22T17:00:34.799Z,34.30
2018-08-22T17:03:07.622Z,34.30
2018-08-22T17:05:38.706Z,34.50
2018-08-22T17:08:10.280Z,34.60
2018-08-22T17:11:00.141Z,34.80
2018-08-22T17:13:41.744Z,34.90
2018-08-22T17:16:13.057Z,34.90
2018-08-22T17:18:44.269Z,35.10
2018-08-22T17:21:15.783Z,35.00
2018-08-22T17:23:47.513Z,35.10
2018-08-22T17:26:20.052Z,35.60
2018-08-22T17:28:54.117Z,35.50
2018-08-22T17:31:26.437Z,35.50
2018-08-22T17:34:00.775Z,35.50
2018-08-22T17:36:32.058Z,35.80
2018-08-22T17:39:03.585Z,35.50
2018-08-22T17:41:34.687Z,36.20
2018-08-22T17:44:13.843Z,36.30
2018-08-22T17:46:49.558Z,36.30
2018-08-22T17:49:20.701Z,36.50
2018-08-22T17:52:15.069Z,36.50
2018-08-22T17:54:46.240Z,36.60
2018-08-22T17:57:26.854Z,36.50
2018-08-22T17:59:58.697Z,36.90
2018-08-22T18:02:29.832Z,36.80
2018-08-22T18:05:03.846Z,37.00
2018-08-22T18:07:35.453Z,37.00
2018-08-22T18:10:06.941Z,37.30
2018-08-22T18:12:44.646Z,37.40
2018-08-22T18:15:15.838Z,37.70
2018-08-22T18:17:49.370Z,37.70
2018-08-22T18:20:20.558Z,37.70
2018-08-22T18:22:51.725Z,37.70
2018-08-22T18:25:23.114Z,38.10
2018-08-22T18:28:00.269Z,38.20
2018-08-22T18:30:31.401Z,38.20
2018-08-22T18:33:02.760Z,38.30
2018-08-22T18:35:33.693Z,38.60
2018-08-22T18:38:05.216Z,38.80
2018-08-22T18:40:36.378Z,38.90
2018-08-22T18:43:08.475Z,39.00
2018-08-22T18:45:55.165Z,39.10
2018-08-22T18:48:26.608Z,39.30
2018-08-22T18:50:57.823Z,39.50
2018-08-22T18:53:29.701Z,39.50
2018-08-22T18:56:14.766Z,39.70
2018-08-22T18:58:46.230Z,39.80
2018-08-22T19:01:17.331Z,40.10
2018-08-22T19:03:49.282Z,40.10
2018-08-22T19:06:20.509Z,40.30
2018-08-22T19:08:52.053Z,40.50
2018-08-22T19:11:23.198Z,41.20
2018-08-22T19:13:54.456Z,40.70
2018-08-22T19:16:25.700Z,40.80
2018-08-22T19:18:57.089Z,40.90
2018-08-22T19:21:29.113Z,41.00
2018-08-22T19:24:06.022Z,41.20
2018-08-22T19:26:37.430Z,41.10
2018-08-22T19:29:08.683Z,41.40
2018-08-22T19:31:46.286Z,41.50
2018-08-22T19:34:17.067Z,41.80
2018-08-22T19:36:48.632Z,41.80
2018-08-22T19:39:19.992Z,42.00
2018-08-22T19:41:51.714Z,42.20
2018-08-22T19:44:23.000Z,42.20
2018-08-22T19:46:54.572Z,42.40
2018-08-22T19:49:25.902Z,42.80
2018-08-22T19:51:56.793Z,42.90
2018-08-22T19:54:27.414Z,43.00
2018-08-22T19:56:58.672Z,43.10
2018-08-22T19:59:29.961Z,43.30
2018-08-22T20:02:01.588Z,43.40
2018-08-22T20:04:33.326Z,43.50
2018-08-22T20:07:04.462Z,43.80
2018-08-22T20:09:37.294Z,43.80
2018-08-22T20:12:08.262Z,43.90
2018-08-22T20:14:53.903Z,44.00
2018-08-22T20:17:29.481Z,44.30
2018-08-22T20:20:00.725Z,44.30
2018-08-22T20:22:35.429Z,44.60
2018-08-22T20:25:07.642Z,44.60
2018-08-22T20:27:38.604Z,44.70
2018-08-22T20:30:17.964Z,44.80
2018-08-22T20:32:58.455Z,44.90
2018-08-22T20:35:35.336Z,45.10
2018-08-22T20:38:07.666Z,45.20
2018-08-22T20:40:38.477Z,45.50
2018-08-22T20:43:20.308Z,45.70
2018-08-22T20:45:51.272Z,45.70
2018-08-22T20:48:22.058Z,45.90
2018-08-22T20:50:53.297Z,46.10
2018-08-22T20:53:24.061Z,46.30
2018-08-22T20:55:55.053Z,46.40
2018-08-22T20:58:30.768Z,46.50
2018-08-22T21:01:01.828Z,46.60
2018-08-22T21:03:32.386Z,46.80
2018-08-22T21:06:03.364Z,46.90
2018-08-22T21:08:34.086Z,47.10
2018-08-22T21:11:05.236Z,47.20
2018-08-22T21:13:35.820Z,47.30
2018-08-22T21:16:06.819Z,47.40
2018-08-22T21:18:37.624Z,47.50
2018-08-22T21:21:17.746Z,47.80
2018-08-22T21:23:48.607Z,47.90
2018-08-22T21:26:36.176Z,48.00
2018-08-22T21:29:07.318Z,49.10
2018-08-22T21:31:38.324Z,48.30
2018-08-22T21:34:15.156Z,48.60
2018-08-22T21:36:46.533Z,48.50
2018-08-22T21:39:24.787Z,48.60
2018-08-22T21:41:56.096Z,48.70
2018-08-22T21:44:27.027Z,48.80
2018-08-22T21:47:02.986Z,49.10
2018-08-22T21:49:33.641Z,49.00
2018-08-22T21:52:04.265Z,49.10
2018-08-22T21:54:34.909Z,49.40
2018-08-22T21:57:05.714Z,49.30
2018-08-22T21:59:36.786Z,49.40
2018-08-22T22:02:08.882Z,49.50
2018-08-22T22:04:40.787Z,49.50
2018-08-22T22:07:12.506Z,49.60
2018-08-22T22:09:43.372Z,49.80
2018-08-22T22:12:19.521Z,49.90
2018-08-22T22:14:50.475Z,49.80
2018-08-22T22:17:21.169Z,50.00
2018-08-22T22:19:51.731Z,50.10
2018-08-22T22:22:22.322Z,50.20
2018-08-22T22:24:57.558Z,50.30
2018-08-22T22:27:29.281Z,50.40
2018-08-22T22:30:04.718Z,50.50
2018-08-22T22:32:35.636Z,50.80
2018-08-22T22:35:06.310Z,50.60
2018-08-22T22:37:36.906Z,50.80
2018-08-22T22:40:08.337Z,51.10
2018-08-22T22:42:38.838Z,51.00
2018-08-22T22:45:09.717Z,51.30
2018-08-22T22:47:40.697Z,51.40
2018-08-22T22:50:11.265Z,51.50
2018-08-22T22:52:45.529Z,51.40
2018-08-22T22:55:16.096Z,51.70
2018-08-22T22:57:47.033Z,51.80
2018-08-22T23:00:18.712Z,52.00
2018-08-22T23:02:54.827Z,52.10
2018-08-22T23:05:30.610Z,52.20
2018-08-22T23:08:03.394Z,52.40
2018-08-22T23:10:34.023Z,52.80
2018-08-22T23:13:04.797Z,52.40
2018-08-22T23:15:36.681Z,52.70
2018-08-22T23:18:07.266Z,52.80
2018-08-22T23:20:41.893Z,52.90
2018-08-22T23:23:36.301Z,53.00
2018-08-22T23:26:19.783Z,53.10
2018-08-22T23:28:50.444Z,52.90
2018-08-22T23:31:21.754Z,53.10
2018-08-22T23:33:52.392Z,53.10
2018-08-22T23:36:23.062Z,53.00
2018-08-22T23:38:53.749Z,53.20
2018-08-22T23:41:24.342Z,53.20
2018-08-22T23:43:55.084Z,53.20
2018-08-22T23:46:26.141Z,53.40
2018-08-22T23:48:59.249Z,53.50
2018-08-22T23:51:29.730Z,53.50
2018-08-22T23:54:01.109Z,53.60
2018-08-22T23:56:32.255Z,53.70
2018-08-22T23:59:02.991Z,53.70
